« Back
NWS Peachtree City, Ga » Text Product » AHN Terminal Aerodrome Forecast


Printer-friendly Version
Current Version              Previous Versions:   1  2  3  4  5  6  7  8  9  

Terminal Aerodrome Forecast

442
FTUS42 KFFC 221740
TAFAHN
TAF
KAHN 221740Z 2218/2318 04004KT P6SM FEW045
     FM230200 00000KT P6SM SKC
     FM231500 10007KT P6SM FEW045=

USA.gov is the U.S. government's official web portal to all federal, state and local government web resources and services.